sensor_id;sensor_type;location;lat;lon;timestamp;pressure;altitude;pressure_sealevel;temperature;humidity
28456;BME280;15682;56.742;38.866;2024-02-21T00:01:00;100420.0;;;-7.5;93.5
28456;BME280;15682;56.742;38.866;2024-02-21T00:03:00;100420.0;;;-7.5;93.9
28456;BME280;15682;56.742;38.866;2024-02-21T00:05:00;100420.0;;;-7.5;93.9
28456;BME280;15682;56.742;38.866;2024-02-21T00:06:59;100420.0;;;-7.3;93.9
28456;BME280;15682;56.742;38.866;2024-02-21T00:08:59;100400.0;;;-7.6;93.4
28456;BME280;15682;56.742;38.866;2024-02-21T00:10:59;100400.0;;;-7.6;93.4
28456;BME280;15682;56.742;38.866;2024-02-21T00:12:59;100400.0;;;-7.6;93.7
28456;BME280;15682;56.742;38.866;2024-02-21T00:14:58;100400.0;;;-7.6;93.9
28456;BME280;15682;56.742;38.866;2024-02-21T00:16:58;100400.0;;;-7.6;93.9
28456;BME280;15682;56.742;38.866;2024-02-21T00:18:58;100400.0;;;-7.6;93.9
28456;BME280;15682;56.742;38.866;2024-02-21T00:20:58;100400.0;;;-7.6;93.9
28456;BME280;15682;56.742;38.866;2024-02-21T00:22:58;100400.0;;;-7.6;94.1
28456;BME280;15682;56.742;38.866;2024-02-21T00:24:58;100400.0;;;-7.6;94.5
28456;BME280;15682;56.742;38.866;2024-02-21T00:26:57;100400.0;;;-7.5;94.5
28456;BME280;15682;56.742;38.866;2024-02-21T00:28:57;100390.0;;;-7.5;93.8
28456;BME280;15682;56.742;38.866;2024-02-21T00:30:57;100390.0;;;-7.5;93.8
28456;BME280;15682;56.742;38.866;2024-02-21T00:32:57;100390.0;;;-7.7;93.8
28456;BME280;15682;56.742;38.866;2024-02-21T00:34:56;100390.0;;;-7.7;94.4
28456;BME280;15682;56.742;38.866;2024-02-21T00:36:56;100390.0;;;-7.6;94.4
28456;BME280;15682;56.742;38.866;2024-02-21T00:38:56;100390.0;;;-7.6;95.3
28456;BME280;15682;56.742;38.866;2024-02-21T00:40:56;100390.0;;;-7.6;94.5
28456;BME280;15682;56.742;38.866;2024-02-21T00:42:55;100380.0;;;-7.6;94.5
28456;BME280;15682;56.742;38.866;2024-02-21T00:44:55;100380.0;;;-7.8;94.6
28456;BME280;15682;56.742;38.866;2024-02-21T00:46:55;100380.0;;;-7.8;95.0
28456;BME280;15682;56.742;38.866;2024-02-21T00:48:55;100380.0;;;-7.8;94.5
28456;BME280;15682;56.742;38.866;2024-02-21T00:50:54;100380.0;;;-7.8;94.7
28456;BME280;15682;56.742;38.866;2024-02-21T00:52:54;100370.0;;;-7.8;94.7
28456;BME280;15682;56.742;38.866;2024-02-21T00:54:54;100380.0;;;-7.8;95.4
28456;BME280;15682;56.742;38.866;2024-02-21T00:56:54;100380.0;;;-7.8;94.9
28456;BME280;15682;56.742;38.866;2024-02-21T00:58:53;100370.0;;;-7.8;94.9
28456;BME280;15682;56.742;38.866;2024-02-21T01:00:53;100360.0;;;-7.8;94.9
28456;BME280;15682;56.742;38.866;2024-02-21T01:02:53;100360.0;;;-7.8;94.9
28456;BME280;15682;56.742;38.866;2024-02-21T01:04:53;100360.0;;;-7.8;94.7
28456;BME280;15682;56.742;38.866;2024-02-21T01:06:53;100360.0;;;-7.9;94.7
28456;BME280;15682;56.742;38.866;2024-02-21T01:08:52;100360.0;;;-7.9;94.7
28456;BME280;15682;56.742;38.866;2024-02-21T01:10:52;100350.0;;;-7.9;94.7
28456;BME280;15682;56.742;38.866;2024-02-21T01:12:52;100350.0;;;-7.9;95.6
28456;BME280;15682;56.742;38.866;2024-02-21T01:14:52;100350.0;;;-8.0;95.0
28456;BME280;15682;56.742;38.866;2024-02-21T01:16:51;100350.0;;;-8.0;95.0
28456;BME280;15682;56.742;38.866;2024-02-21T01:18:51;100350.0;;;-8.0;95.0
28456;BME280;15682;56.742;38.866;2024-02-21T01:20:51;100350.0;;;-8.0;95.0
28456;BME280;15682;56.742;38.866;2024-02-21T01:22:51;100350.0;;;-8.0;95.0
28456;BME280;15682;56.742;38.866;2024-02-21T01:24:50;100350.0;;;-8.0;95.3
28456;BME280;15682;56.742;38.866;2024-02-21T01:26:50;100350.0;;;-8.1;95.3
28456;BME280;15682;56.742;38.866;2024-02-21T01:28:50;100350.0;;;-8.1;95.3
28456;BME280;15682;56.742;38.866;2024-02-21T01:30:50;100350.0;;;-8.1;95.3
28456;BME280;15682;56.742;38.866;2024-02-21T01:32:49;100350.0;;;-8.1;95.7
28456;BME280;15682;56.742;38.866;2024-02-21T01:34:49;100350.0;;;-8.1;95.3
28456;BME280;15682;56.742;38.866;2024-02-21T01:36:49;100350.0;;;-8.2;95.1
28456;BME280;15682;56.742;38.866;2024-02-21T01:38:49;100350.0;;;-8.2;95.1
28456;BME280;15682;56.742;38.866;2024-02-21T01:40:49;100340.0;;;-8.2;95.1
28456;BME280;15682;56.742;38.866;2024-02-21T01:42:48;100340.0;;;-8.3;95.9
28456;BME280;15682;56.742;38.866;2024-02-21T01:44:48;100340.0;;;-8.3;95.9
28456;BME280;15682;56.742;38.866;2024-02-21T01:46:48;100330.0;;;-8.3;95.9
28456;BME280;15682;56.742;38.866;2024-02-21T01:48:48;100330.0;;;-8.3;95.9
28456;BME280;15682;56.742;38.866;2024-02-21T01:50:49;100330.0;;;-8.3;95.9
28456;BME280;15682;56.742;38.866;2024-02-21T01:52:49;100330.0;;;-8.3;95.9
28456;BME280;15682;56.742;38.866;2024-02-21T01:54:47;100330.0;;;-8.4;95.6
28456;BME280;15682;56.742;38.866;2024-02-21T01:56:47;100330.0;;;-8.4;95.6
28456;BME280;15682;56.742;38.866;2024-02-21T01:58:48;100330.0;;;-8.3;96.7
28456;BME280;15682;56.742;38.866;2024-02-21T02:00:48;100320.0;;;-8.4;96.7
28456;BME280;15682;56.742;38.866;2024-02-21T02:02:46;100320.0;;;-8.4;96.7
28456;BME280;15682;56.742;38.866;2024-02-21T02:04:46;100320.0;;;-8.4;96.0
28456;BME280;15682;56.742;38.866;2024-02-21T02:06:46;100320.0;;;-8.4;96.0
28456;BME280;15682;56.742;38.866;2024-02-21T02:08:45;100320.0;;;-8.4;96.0
28456;BME280;15682;56.742;38.866;2024-02-21T02:10:45;100320.0;;;-8.4;96.9
28456;BME280;15682;56.742;38.866;2024-02-21T02:12:45;100320.0;;;-8.4;96.9
28456;BME280;15682;56.742;38.866;2024-02-21T02:14:44;100320.0;;;-8.4;96.3
28456;BME280;15682;56.742;38.866;2024-02-21T02:16:46;100320.0;;;-8.5;96.3
28456;BME280;15682;56.742;38.866;2024-02-21T02:18:44;100320.0;;;-8.5;96.3
28456;BME280;15682;56.742;38.866;2024-02-21T02:20:44;100330.0;;;-8.5;97.0
28456;BME280;15682;56.742;38.866;2024-02-21T02:22:47;100330.0;;;-8.5;96.3
28456;BME280;15682;56.742;38.866;2024-02-21T02:24:43;100330.0;;;-8.5;96.2
28456;BME280;15682;56.742;38.866;2024-02-21T02:26:43;100330.0;;;-8.4;96.2
28456;BME280;15682;56.742;38.866;2024-02-21T02:28:43;100330.0;;;-8.4;95.8
28456;BME280;15682;56.742;38.866;2024-02-21T02:30:43;100330.0;;;-8.3;96.0
28456;BME280;15682;56.742;38.866;2024-02-21T02:32:44;100330.0;;;-8.3;96.0
28456;BME280;15682;56.742;38.866;2024-02-21T02:34:42;100330.0;;;-8.3;96.0
28456;BME280;15682;56.742;38.866;2024-02-21T02:36:42;100320.0;;;-8.3;96.9
28456;BME280;15682;56.742;38.866;2024-02-21T02:38:42;100320.0;;;-8.3;96.3
28456;BME280;15682;56.742;38.866;2024-02-21T02:40:41;100320.0;;;-8.4;96.3
28456;BME280;15682;56.742;38.866;2024-02-21T02:42:41;100320.0;;;-8.4;96.3
28456;BME280;15682;56.742;38.866;2024-02-21T02:44:41;100320.0;;;-8.2;96.9
28456;BME280;15682;56.742;38.866;2024-02-21T02:46:41;100320.0;;;-8.2;96.3
28456;BME280;15682;56.742;38.866;2024-02-21T02:48:40;100320.0;;;-8.4;96.3
28456;BME280;15682;56.742;38.866;2024-02-21T02:50:40;100320.0;;;-8.2;96.3
28456;BME280;15682;56.742;38.866;2024-02-21T02:52:40;100320.0;;;-8.2;96.3
28456;BME280;15682;56.742;38.866;2024-02-21T02:54:40;100320.0;;;-8.2;96.5
28456;BME280;15682;56.742;38.866;2024-02-21T02:56:39;100320.0;;;-8.2;95.7
28456;BME280;15682;56.742;38.866;2024-02-21T02:58:39;100320.0;;;-8.2;95.7
28456;BME280;15682;56.742;38.866;2024-02-21T03:00:39;100320.0;;;-8.2;95.7
28456;BME280;15682;56.742;38.866;2024-02-21T03:02:41;100320.0;;;-8.2;96.2
28456;BME280;15682;56.742;38.866;2024-02-21T03:04:39;100320.0;;;-8.2;96.4
28456;BME280;15682;56.742;38.866;2024-02-21T03:06:38;100320.0;;;-8.1;96.4
28456;BME280;15682;56.742;38.866;2024-02-21T03:08:38;100320.0;;;-8.1;95.6
28456;BME280;15682;56.742;38.866;2024-02-21T03:10:38;100320.0;;;-8.1;95.6
28456;BME280;15682;56.742;38.866;2024-02-21T03:12:38;100320.0;;;-8.1;95.6
28456;BME280;15682;56.742;38.866;2024-02-21T03:14:37;100320.0;;;-8.1;95.4
28456;BME280;15682;56.742;38.866;2024-02-21T03:16:37;100320.0;;;-8.0;95.8
28456;BME280;15682;56.742;38.866;2024-02-21T03:18:37;100320.0;;;-8.0;96.0
28456;BME280;15682;56.742;38.866;2024-02-21T03:20:37;100320.0;;;-8.1;95.4
28456;BME280;15682;56.742;38.866;2024-02-21T03:22:37;100320.0;;;-8.1;95.9
28456;BME280;15682;56.742;38.866;2024-02-21T03:24:36;100320.0;;;-8.1;95.1
28456;BME280;15682;56.742;38.866;2024-02-21T03:26:36;100320.0;;;-8.1;95.7
28456;BME280;15682;56.742;38.866;2024-02-21T03:28:36;100320.0;;;-8.1;95.7
28456;BME280;15682;56.742;38.866;2024-02-21T03:30:36;100320.0;;;-8.1;95.2
28456;BME280;15682;56.742;38.866;2024-02-21T03:32:36;100320.0;;;-8.1;96.0
28456;BME280;15682;56.742;38.866;2024-02-21T03:34:35;100320.0;;;-8.1;95.0
28456;BME280;15682;56.742;38.866;2024-02-21T03:36:35;100320.0;;;-8.1;95.0
28456;BME280;15682;56.742;38.866;2024-02-21T03:38:35;100320.0;;;-8.1;95.0
28456;BME280;15682;56.742;38.866;2024-02-21T03:40:34;100320.0;;;-8.1;95.0
28456;BME280;15682;56.742;38.866;2024-02-21T03:42:34;100320.0;;;-8.1;95.0
28456;BME280;15682;56.742;38.866;2024-02-21T03:44:34;100320.0;;;-8.1;94.7
28456;BME280;15682;56.742;38.866;2024-02-21T03:46:34;100320.0;;;-8.0;94.7
28456;BME280;15682;56.742;38.866;2024-02-21T03:48:33;100320.0;;;-8.0;94.7
28456;BME280;15682;56.742;38.866;2024-02-21T03:50:33;100320.0;;;-8.0;94.7
28456;BME280;15682;56.742;38.866;2024-02-21T03:52:33;100320.0;;;-8.0;94.7
28456;BME280;15682;56.742;38.866;2024-02-21T03:54:33;100320.0;;;-8.0;94.5
28456;BME280;15682;56.742;38.866;2024-02-21T03:56:32;100320.0;;;-7.9;94.5
28456;BME280;15682;56.742;38.866;2024-02-21T03:58:33;100320.0;;;-7.9;94.5
28456;BME280;15682;56.742;38.866;2024-02-21T04:00:32;100320.0;;;-7.9;94.5
28456;BME280;15682;56.742;38.866;2024-02-21T04:02:32;100320.0;;;-7.9;94.5
28456;BME280;15682;56.742;38.866;2024-02-21T04:04:31;100320.0;;;-7.9;94.4
28456;BME280;15682;56.742;38.866;2024-02-21T04:06:31;100320.0;;;-7.9;94.4
28456;BME280;15682;56.742;38.866;2024-02-21T04:08:31;100320.0;;;-7.9;94.4
28456;BME280;15682;56.742;38.866;2024-02-21T04:10:31;100320.0;;;-7.9;94.4
28456;BME280;15682;56.742;38.866;2024-02-21T04:12:31;100320.0;;;-7.9;94.4
28456;BME280;15682;56.742;38.866;2024-02-21T04:14:30;100320.0;;;-7.9;94.5
28456;BME280;15682;56.742;38.866;2024-02-21T04:16:30;100320.0;;;-7.9;94.5
28456;BME280;15682;56.742;38.866;2024-02-21T04:18:30;100320.0;;;-7.9;94.5
28456;BME280;15682;56.742;38.866;2024-02-21T04:20:30;100320.0;;;-7.9;94.5
28456;BME280;15682;56.742;38.866;2024-02-21T04:22:30;100320.0;;;-7.9;94.5
28456;BME280;15682;56.742;38.866;2024-02-21T04:24:29;100320.0;;;-7.9;94.4
28456;BME280;15682;56.742;38.866;2024-02-21T04:26:29;100320.0;;;-7.9;94.4
28456;BME280;15682;56.742;38.866;2024-02-21T04:28:29;100330.0;;;-7.8;94.4
28456;BME280;15682;56.742;38.866;2024-02-21T04:30:29;100330.0;;;-7.8;94.4
28456;BME280;15682;56.742;38.866;2024-02-21T04:32:28;100330.0;;;-7.8;94.4
28456;BME280;15682;56.742;38.866;2024-02-21T04:34:28;100330.0;;;-7.8;94.1
28456;BME280;15682;56.742;38.866;2024-02-21T04:36:28;100330.0;;;-7.8;94.1
28456;BME280;15682;56.742;38.866;2024-02-21T04:38:28;100330.0;;;-7.8;94.1
28456;BME280;15682;56.742;38.866;2024-02-21T04:40:27;100330.0;;;-7.8;94.1
28456;BME280;15682;56.742;38.866;2024-02-21T04:42:27;100330.0;;;-7.8;94.1
28456;BME280;15682;56.742;38.866;2024-02-21T04:44:27;100330.0;;;-7.8;94.0
28456;BME280;15682;56.742;38.866;2024-02-21T04:46:27;100330.0;;;-7.6;93.9
28456;BME280;15682;56.742;38.866;2024-02-21T04:48:27;100330.0;;;-7.6;93.9
28456;BME280;15682;56.742;38.866;2024-02-21T04:50:26;100330.0;;;-7.6;93.9
28456;BME280;15682;56.742;38.866;2024-02-21T04:52:26;100330.0;;;-7.6;93.9
28456;BME280;15682;56.742;38.866;2024-02-21T04:54:26;100330.0;;;-7.6;93.8
28456;BME280;15682;56.742;38.866;2024-02-21T04:56:26;100330.0;;;-7.5;93.8
28456;BME280;15682;56.742;38.866;2024-02-21T04:58:26;100330.0;;;-7.4;93.8
28456;BME280;15682;56.742;38.866;2024-02-21T05:00:25;100330.0;;;-7.4;93.4
28456;BME280;15682;56.742;38.866;2024-02-21T05:02:25;100330.0;;;-7.4;93.4
28456;BME280;15682;56.742;38.866;2024-02-21T05:04:25;100340.0;;;-7.4;93.5
28456;BME280;15682;56.742;38.866;2024-02-21T05:06:25;100340.0;;;-7.4;93.5
28456;BME280;15682;56.742;38.866;2024-02-21T05:08:24;100340.0;;;-7.4;93.5
28456;BME280;15682;56.742;38.866;2024-02-21T05:10:24;100340.0;;;-7.4;93.5
28456;BME280;15682;56.742;38.866;2024-02-21T05:12:24;100340.0;;;-7.3;93.5
28456;BME280;15682;56.742;38.866;2024-02-21T05:14:24;100340.0;;;-7.3;93.1
28456;BME280;15682;56.742;38.866;2024-02-21T05:16:24;100340.0;;;-7.4;93.1
28456;BME280;15682;56.742;38.866;2024-02-21T05:18:23;100340.0;;;-7.4;93.1
28456;BME280;15682;56.742;38.866;2024-02-21T05:20:23;100340.0;;;-7.4;93.1
28456;BME280;15682;56.742;38.866;2024-02-21T05:22:23;100340.0;;;-7.2;93.1
28456;BME280;15682;56.742;38.866;2024-02-21T05:24:23;100340.0;;;-7.2;92.8
28456;BME280;15682;56.742;38.866;2024-02-21T05:26:23;100340.0;;;-7.2;92.8
28456;BME280;15682;56.742;38.866;2024-02-21T05:28:22;100340.0;;;-7.2;92.8
28456;BME280;15682;56.742;38.866;2024-02-21T05:30:22;100340.0;;;-7.2;92.8
28456;BME280;15682;56.742;38.866;2024-02-21T05:32:22;100330.0;;;-7.2;92.8
28456;BME280;15682;56.742;38.866;2024-02-21T05:34:23;100330.0;;;-7.2;92.8
28456;BME280;15682;56.742;38.866;2024-02-21T05:36:22;100330.0;;;-7.1;92.8
28456;BME280;15682;56.742;38.866;2024-02-21T05:38:21;100330.0;;;-7.1;94.1
28456;BME280;15682;56.742;38.866;2024-02-21T05:40:21;100330.0;;;-6.9;92.9
28456;BME280;15682;56.742;38.866;2024-02-21T05:42:21;100330.0;;;-6.9;92.1
28456;BME280;15682;56.742;38.866;2024-02-21T05:44:21;100330.0;;;-6.9;92.4
28456;BME280;15682;56.742;38.866;2024-02-21T05:46:21;100330.0;;;-6.9;92.4
28456;BME280;15682;56.742;38.866;2024-02-21T05:48:21;100330.0;;;-6.9;92.4
28456;BME280;15682;56.742;38.866;2024-02-21T05:50:20;100330.0;;;-6.9;92.4
28456;BME280;15682;56.742;38.866;2024-02-21T05:52:20;100330.0;;;-6.9;92.4
28456;BME280;15682;56.742;38.866;2024-02-21T05:54:20;100330.0;;;-6.9;91.8
28456;BME280;15682;56.742;38.866;2024-02-21T05:56:20;100330.0;;;-6.8;91.5
28456;BME280;15682;56.742;38.866;2024-02-21T05:58:19;100330.0;;;-6.8;91.5
28456;BME280;15682;56.742;38.866;2024-02-21T06:00:19;100330.0;;;-6.7;91.5
28456;BME280;15682;56.742;38.866;2024-02-21T06:02:19;100330.0;;;-6.7;91.5
28456;BME280;15682;56.742;38.866;2024-02-21T06:04:19;100330.0;;;-6.7;91.3
28456;BME280;15682;56.742;38.866;2024-02-21T06:06:19;100330.0;;;-6.6;91.3
28456;BME280;15682;56.742;38.866;2024-02-21T06:08:18;100330.0;;;-6.6;91.3
28456;BME280;15682;56.742;38.866;2024-02-21T06:10:18;100330.0;;;-6.5;91.3
28456;BME280;15682;56.742;38.866;2024-02-21T06:12:18;100330.0;;;-6.5;91.3
28456;BME280;15682;56.742;38.866;2024-02-21T06:14:18;100330.0;;;-6.4;91.6
28456;BME280;15682;56.742;38.866;2024-02-21T06:16:18;100330.0;;;-6.5;91.6
28456;BME280;15682;56.742;38.866;2024-02-21T06:18:18;100320.0;;;-6.5;90.7
28456;BME280;15682;56.742;38.866;2024-02-21T06:20:17;100320.0;;;-6.3;91.3
28456;BME280;15682;56.742;38.866;2024-02-21T06:22:17;100320.0;;;-6.3;90.7
28456;BME280;15682;56.742;38.866;2024-02-21T06:24:17;100320.0;;;-6.3;91.1
28456;BME280;15682;56.742;38.866;2024-02-21T06:26:17;100320.0;;;-6.2;91.1
28456;BME280;15682;56.742;38.866;2024-02-21T06:28:17;100320.0;;;-6.0;91.1
28456;BME280;15682;56.742;38.866;2024-02-21T06:30:16;100320.0;;;-6.1;91.1
28456;BME280;15682;56.742;38.866;2024-02-21T06:32:16;100320.0;;;-6.1;90.7
28456;BME280;15682;56.742;38.866;2024-02-21T06:34:16;100320.0;;;-6.1;90.3
28456;BME280;15682;56.742;38.866;2024-02-21T06:36:16;100320.0;;;-6.2;90.3
28456;BME280;15682;56.742;38.866;2024-02-21T06:38:16;100320.0;;;-6.2;90.3
28456;BME280;15682;56.742;38.866;2024-02-21T06:40:16;100320.0;;;-6.2;90.3
28456;BME280;15682;56.742;38.866;2024-02-21T06:42:15;100320.0;;;-6.0;90.3
28456;BME280;15682;56.742;38.866;2024-02-21T06:44:15;100320.0;;;-6.0;90.4
28456;BME280;15682;56.742;38.866;2024-02-21T06:46:24;100320.0;;;-5.9;90.1
28456;BME280;15682;56.742;38.866;2024-02-21T06:48:15;100320.0;;;-5.7;90.1
28456;BME280;15682;56.742;38.866;2024-02-21T06:50:15;100320.0;;;-5.5;90.1
28456;BME280;15682;56.742;38.866;2024-02-21T06:52:14;100320.0;;;-5.6;89.4
28456;BME280;15682;56.742;38.866;2024-02-21T06:54:14;100320.0;;;-5.5;89.3
28456;BME280;15682;56.742;38.866;2024-02-21T06:56:14;100320.0;;;-5.5;89.3
28456;BME280;15682;56.742;38.866;2024-02-21T06:58:14;100320.0;;;-5.5;89.3
28456;BME280;15682;56.742;38.866;2024-02-21T07:00:15;100320.0;;;-5.5;89.3
28456;BME280;15682;56.742;38.866;2024-02-21T07:02:14;100320.0;;;-5.5;89.3
28456;BME280;15682;56.742;38.866;2024-02-21T07:04:14;100320.0;;;-5.5;88.9
28456;BME280;15682;56.742;38.866;2024-02-21T07:06:13;100320.0;;;-5.4;88.7
28456;BME280;15682;56.742;38.866;2024-02-21T07:08:13;100320.0;;;-5.4;88.7
28456;BME280;15682;56.742;38.866;2024-02-21T07:10:13;100320.0;;;-5.3;88.7
28456;BME280;15682;56.742;38.866;2024-02-21T07:12:13;100320.0;;;-5.3;88.7
28456;BME280;15682;56.742;38.866;2024-02-21T07:14:14;100320.0;;;-5.2;88.2
28456;BME280;15682;56.742;38.866;2024-02-21T07:16:13;100320.0;;;-5.2;88.2
28456;BME280;15682;56.742;38.866;2024-02-21T07:18:12;100320.0;;;-5.2;88.2
28456;BME280;15682;56.742;38.866;2024-02-21T07:20:12;100320.0;;;-5.2;88.2
28456;BME280;15682;56.742;38.866;2024-02-21T07:22:13;100320.0;;;-5.0;88.2
28456;BME280;15682;56.742;38.866;2024-02-21T07:24:12;100320.0;;;-4.9;87.7
28456;BME280;15682;56.742;38.866;2024-02-21T07:26:12;100320.0;;;-4.8;87.7
28456;BME280;15682;56.742;38.866;2024-02-21T07:28:12;100320.0;;;-4.8;87.2
28456;BME280;15682;56.742;38.866;2024-02-21T07:30:12;100320.0;;;-4.8;87.2
28456;BME280;15682;56.742;38.866;2024-02-21T07:32:12;100320.0;;;-4.7;87.2
28456;BME280;15682;56.742;38.866;2024-02-21T07:34:11;100320.0;;;-4.6;87.2
28456;BME280;15682;56.742;38.866;2024-02-21T07:36:11;100320.0;;;-4.5;86.5
28456;BME280;15682;56.742;38.866;2024-02-21T07:38:11;100320.0;;;-4.3;85.9
28456;BME280;15682;56.742;38.866;2024-02-21T07:40:13;100320.0;;;-4.4;85.9
28456;BME280;15682;56.742;38.866;2024-02-21T07:42:11;100310.0;;;-4.2;85.9
28456;BME280;15682;56.742;38.866;2024-02-21T07:44:11;100310.0;;;-3.7;85.5
28456;BME280;15682;56.742;38.866;2024-02-21T07:46:11;100310.0;;;-3.7;85.2
28456;BME280;15682;56.742;38.866;2024-02-21T07:48:10;100310.0;;;-3.8;85.2
28456;BME280;15682;56.742;38.866;2024-02-21T07:50:10;100310.0;;;-3.8;85.2
28456;BME280;15682;56.742;38.866;2024-02-21T07:52:10;100300.0;;;-3.8;85.2
28456;BME280;15682;56.742;38.866;2024-02-21T07:54:10;100300.0;;;-3.7;85.3
28456;BME280;15682;56.742;38.866;2024-02-21T07:56:10;100300.0;;;-3.8;85.3
28456;BME280;15682;56.742;38.866;2024-02-21T07:58:10;100300.0;;;-3.6;85.3
28456;BME280;15682;56.742;38.866;2024-02-21T08:00:10;100300.0;;;-3.7;84.6
28456;BME280;15682;56.742;38.866;2024-02-21T08:02:10;100300.0;;;-3.6;84.4
28456;BME280;15682;56.742;38.866;2024-02-21T08:04:09;100300.0;;;-3.7;84.6
28456;BME280;15682;56.742;38.866;2024-02-21T08:06:12;100300.0;;;-3.8;85.0
28456;BME280;15682;56.742;38.866;2024-02-21T08:08:09;100300.0;;;-3.4;85.0
28456;BME280;15682;56.742;38.866;2024-02-21T08:10:09;100300.0;;;-3.4;84.3
28456;BME280;15682;56.742;38.866;2024-02-21T08:12:09;100300.0;;;-3.2;84.3
28456;BME280;15682;56.742;38.866;2024-02-21T08:14:09;100300.0;;;-3.4;83.7
28456;BME280;15682;56.742;38.866;2024-02-21T08:16:09;100300.0;;;-3.3;84.0
28456;BME280;15682;56.742;38.866;2024-02-21T08:18:09;100300.0;;;-3.2;84.0
28456;BME280;15682;56.742;38.866;2024-02-21T08:20:10;100300.0;;;-3.4;84.0
28456;BME280;15682;56.742;38.866;2024-02-21T08:22:08;100300.0;;;-3.4;84.0
28456;BME280;15682;56.742;38.866;2024-02-21T08:24:08;100300.0;;;-3.2;84.4
28456;BME280;15682;56.742;38.866;2024-02-21T08:26:08;100300.0;;;-3.2;83.3
28456;BME280;15682;56.742;38.866;2024-02-21T08:28:08;100300.0;;;-3.2;83.3
28456;BME280;15682;56.742;38.866;2024-02-21T08:30:09;100300.0;;;-3.2;84.2
28456;BME280;15682;56.742;38.866;2024-02-21T08:32:08;100300.0;;;-3.2;84.2
28456;BME280;15682;56.742;38.866;2024-02-21T08:34:08;100300.0;;;-3.0;83.5
28456;BME280;15682;56.742;38.866;2024-02-21T08:36:08;100300.0;;;-3.1;83.5
28456;BME280;15682;56.742;38.866;2024-02-21T08:38:08;100300.0;;;-3.1;82.8
28456;BME280;15682;56.742;38.866;2024-02-21T08:40:08;100300.0;;;-3.1;82.8
28456;BME280;15682;56.742;38.866;2024-02-21T08:42:07;100300.0;;;-3.0;83.3
28456;BME280;15682;56.742;38.866;2024-02-21T08:44:08;100300.0;;;-3.0;82.8
28456;BME280;15682;56.742;38.866;2024-02-21T08:46:07;100300.0;;;-2.8;82.7
28456;BME280;15682;56.742;38.866;2024-02-21T08:48:07;100300.0;;;-2.8;82.7
28456;BME280;15682;56.742;38.866;2024-02-21T08:50:08;100300.0;;;-2.8;82.7
28456;BME280;15682;56.742;38.866;2024-02-21T08:52:07;100300.0;;;-2.8;82.7
28456;BME280;15682;56.742;38.866;2024-02-21T08:54:07;100300.0;;;-2.8;82.4
28456;BME280;15682;56.742;38.866;2024-02-21T08:56:07;100300.0;;;-2.8;82.6
28456;BME280;15682;56.742;38.866;2024-02-21T08:58:07;100300.0;;;-2.7;82.6
28456;BME280;15682;56.742;38.866;2024-02-21T09:00:07;100300.0;;;-2.8;82.6
28456;BME280;15682;56.742;38.866;2024-02-21T09:02:06;100300.0;;;-2.7;82.6
28456;BME280;15682;56.742;38.866;2024-02-21T09:04:07;100300.0;;;-2.9;82.4
28456;BME280;15682;56.742;38.866;2024-02-21T09:06:09;100300.0;;;-2.7;82.4
28456;BME280;15682;56.742;38.866;2024-02-21T09:08:06;100300.0;;;-2.5;82.4
28456;BME280;15682;56.742;38.866;2024-02-21T09:10:07;100300.0;;;-2.7;82.4
28456;BME280;15682;56.742;38.866;2024-02-21T09:12:07;100300.0;;;-2.5;82.0
28456;BME280;15682;56.742;38.866;2024-02-21T09:14:06;100300.0;;;-2.5;81.7
28456;BME280;15682;56.742;38.866;2024-02-21T09:16:06;100300.0;;;-2.8;81.7
28456;BME280;15682;56.742;38.866;2024-02-21T09:18:06;100300.0;;;-2.8;81.7
28456;BME280;15682;56.742;38.866;2024-02-21T09:20:07;100300.0;;;-2.5;81.9
28456;BME280;15682;56.742;38.866;2024-02-21T09:22:06;100300.0;;;-2.6;81.9
28456;BME280;15682;56.742;38.866;2024-02-21T09:24:06;100300.0;;;-2.6;82.2
28456;BME280;15682;56.742;38.866;2024-02-21T09:26:05;100300.0;;;-2.7;82.4
28456;BME280;15682;56.742;38.866;2024-02-21T09:28:05;100300.0;;;-2.4;83.5
28456;BME280;15682;56.742;38.866;2024-02-21T09:30:06;100300.0;;;-2.8;82.1
28456;BME280;15682;56.742;38.866;2024-02-21T09:32:06;100280.0;;;-2.9;82.7
28456;BME280;15682;56.742;38.866;2024-02-21T09:34:05;100270.0;;;-2.9;83.1
28456;BME280;15682;56.742;38.866;2024-02-21T09:36:06;100270.0;;;-2.8;83.1
28456;BME280;15682;56.742;38.866;2024-02-21T09:38:05;100270.0;;;-2.8;82.9
28456;BME280;15682;56.742;38.866;2024-02-21T09:40:06;100270.0;;;-2.6;82.3
28456;BME280;15682;56.742;38.866;2024-02-21T09:42:06;100270.0;;;-2.6;82.3
28456;BME280;15682;56.742;38.866;2024-02-21T09:44:05;100270.0;;;-2.6;82.0
28456;BME280;15682;56.742;38.866;2024-02-21T09:46:05;100270.0;;;-2.6;82.2
28456;BME280;15682;56.742;38.866;2024-02-21T09:48:19;100270.0;;;-2.6;82.2
28456;BME280;15682;56.742;38.866;2024-02-21T09:50:05;100270.0;;;-2.7;82.2
28456;BME280;15682;56.742;38.866;2024-02-21T09:52:05;100270.0;;;-2.7;82.2
28456;BME280;15682;56.742;38.866;2024-02-21T09:54:04;100270.0;;;-2.5;81.9
28456;BME280;15682;56.742;38.866;2024-02-21T09:56:05;100270.0;;;-2.2;81.7
28456;BME280;15682;56.742;38.866;2024-02-21T09:58:04;100270.0;;;-2.1;81.1
28456;BME280;15682;56.742;38.866;2024-02-21T10:00:05;100270.0;;;-2.1;81.1
28456;BME280;15682;56.742;38.866;2024-02-21T10:02:04;100270.0;;;-2.4;81.1
28456;BME280;15682;56.742;38.866;2024-02-21T10:04:03;100270.0;;;-2.6;81.6
28456;BME280;15682;56.742;38.866;2024-02-21T10:06:04;100270.0;;;-2.7;82.1
28456;BME280;15682;56.742;38.866;2024-02-21T10:08:04;100270.0;;;-2.6;82.1
28456;BME280;15682;56.742;38.866;2024-02-21T10:10:04;100270.0;;;-2.6;82.1
28456;BME280;15682;56.742;38.866;2024-02-21T10:12:09;100270.0;;;-2.6;82.1
28456;BME280;15682;56.742;38.866;2024-02-21T10:14:03;100270.0;;;-2.5;81.7
28456;BME280;15682;56.742;38.866;2024-02-21T10:16:04;100270.0;;;-2.4;81.7
28456;BME280;15682;56.742;38.866;2024-02-21T10:18:03;100270.0;;;-2.4;81.5
28456;BME280;15682;56.742;38.866;2024-02-21T10:20:11;100270.0;;;-2.4;81.5
28456;BME280;15682;56.742;38.866;2024-02-21T10:22:05;100270.0;;;-2.4;80.9
28456;BME280;15682;56.742;38.866;2024-02-21T10:24:03;100270.0;;;-2.1;81.5
28456;BME280;15682;56.742;38.866;2024-02-21T10:26:07;100270.0;;;-2.0;80.7
28456;BME280;15682;56.742;38.866;2024-02-21T10:28:02;100270.0;;;-2.0;81.3
28456;BME280;15682;56.742;38.866;2024-02-21T10:30:03;100270.0;;;-2.0;81.3
28456;BME280;15682;56.742;38.866;2024-02-21T10:32:05;100270.0;;;-2.0;81.3
28456;BME280;15682;56.742;38.866;2024-02-21T10:34:02;100270.0;;;-2.0;81.3
28456;BME280;15682;56.742;38.866;2024-02-21T10:36:10;100270.0;;;-1.9;81.3
28456;BME280;15682;56.742;38.866;2024-02-21T10:38:02;100270.0;;;-1.9;81.9
28456;BME280;15682;56.742;38.866;2024-02-21T10:40:02;100270.0;;;-2.0;80.9
28456;BME280;15682;56.742;38.866;2024-02-21T10:42:03;100270.0;;;-2.1;80.9